createdAt,value
2017-08-26T09:17:45.058Z,495.0
2017-08-26T09:28:01.653Z,1425.0
2017-08-26T09:38:17.909Z,1680.0
2017-08-26T09:48:35.119Z,1720.0
2017-08-26T09:58:51.226Z,865.0
2017-08-26T10:09:37.917Z,2095.0
2017-08-26T10:19:54.264Z,1980.0
2017-08-26T10:30:10.558Z,1810.0
2017-08-26T10:40:26.599Z,2030.0
2017-08-26T10:50:39.818Z,1985.0
2017-08-26T11:00:56.083Z,1920.0
2017-08-26T11:11:12.233Z,2120.0
2017-08-26T11:21:28.853Z,1430.0
2017-08-26T11:31:44.743Z,1200.0
2017-08-26T11:42:00.952Z,725.0
2017-08-26T11:52:17.254Z,1570.0
2017-08-26T12:02:34.423Z,1580.0
2017-08-26T12:13:22.553Z,1195.0
2017-08-26T12:24:12.264Z,870.0
2017-08-26T12:34:30.582Z,1030.0
2017-08-26T12:45:21.355Z,785.0
2017-08-26T12:56:46.463Z,900.0
2017-08-26T13:07:16.668Z,1845.0
2017-08-26T13:17:34.330Z,1535.0
2017-08-26T13:27:50.605Z,1765.0
2017-08-26T13:38:06.846Z,595.0
2017-08-26T13:48:24.150Z,500.0
2017-08-26T13:59:17.419Z,405.0
2017-08-26T14:09:33.140Z,420.0
2017-08-26T14:19:49.359Z,475.0
2017-08-26T14:30:05.980Z,690.0
2017-08-26T14:40:22.021Z,1345.0
2017-08-26T14:50:37.930Z,975.0
2017-08-26T15:00:54.518Z,505.0
2017-08-26T15:11:10.336Z,535.0
2017-08-26T15:21:26.866Z,300.0
2017-08-26T15:31:42.985Z,440.0
2017-08-26T15:41:59.910Z,380.0
2017-08-26T15:52:15.356Z,325.0
2017-08-26T16:02:31.840Z,260.0
2017-08-26T16:12:49.725Z,290.0
2017-08-26T16:23:39.543Z,280.0
2017-08-26T16:33:56.157Z,190.0
2017-08-26T16:44:12.349Z,150.0
2017-08-26T16:54:58.884Z,120.0
2017-08-26T17:05:15.208Z,105.0
2017-08-26T17:15:31.686Z,115.0
2017-08-26T17:25:47.554Z,120.0
2017-08-26T17:36:34.303Z,85.0
2017-08-26T17:46:50.525Z,65.0
2017-08-26T17:57:06.731Z,45.0
2017-08-26T18:07:23.250Z,30.0
2017-08-26T18:17:39.154Z,15.0
2017-08-26T18:27:55.726Z,5.0
2017-08-26T18:38:11.796Z,0.0
2017-08-26T18:48:27.723Z,0.0
2017-08-26T18:58:44.105Z,0.0
2017-08-26T19:09:00.372Z,0.0
2017-08-26T19:19:16.542Z,0.0
2017-08-26T19:29:34.271Z,0.0
2017-08-26T19:39:49.887Z,0.0
2017-08-26T19:50:06.409Z,0.0
2017-08-26T20:00:22.307Z,0.0
2017-08-26T20:10:38.706Z,0.0
2017-08-26T20:20:54.712Z,0.0
2017-08-26T20:31:11.141Z,0.0
2017-08-26T20:41:27.289Z,0.0
2017-08-26T20:51:43.452Z,0.0
2017-08-26T21:02:00.108Z,0.0
2017-08-26T21:12:15.983Z,0.0
2017-08-26T21:22:32.254Z,0.0
2017-08-26T21:32:49.618Z,0.0
2017-08-26T21:43:37.929Z,0.0
2017-08-26T21:53:51.235Z,0.0
2017-08-26T22:04:07.509Z,0.0
2017-08-26T22:14:23.933Z,0.0
2017-08-26T22:24:40.165Z,0.0
2017-08-26T22:35:26.895Z,0.0
2017-08-26T22:45:43.081Z,0.0
2017-08-26T22:55:59.370Z,0.0
2017-08-26T23:06:15.455Z,0.0
2017-08-26T23:16:31.726Z,0.0
2017-08-26T23:26:48.003Z,0.0
2017-08-26T23:37:04.056Z,0.0
2017-08-26T23:47:52.000Z,0.0
2017-08-26T23:58:08.454Z,0.0
